Time;durP1;ratioP1;P1;durP2;ratioP2;P2;SDS_P1;SDS_P2;PMS_P1;PMS_P2;Temp;Humidity;BMP_temperature;BMP_pressure;BME280_temperature;BME280_humidity;BME280_pressure;Samples;Min_cycle;Max_cycle;Signal;HPM_P1;HPM_P2
2022/06/27 00:01:25;;;;;;;3.40;3.10;;;19.10;99.90;;;;;;5035013;28;20673;-73
2022/06/27 00:03:51;;;;;;;3.50;3.20;;;19.10;99.90;;;;;;5034516;28;20540;-73
2022/06/27 00:06:19;;;;;;;4.20;3.37;;;19.00;99.90;;;;;;5034811;28;20293;-73
2022/06/27 00:08:47;;;;;;;6.33;3.10;;;19.00;99.90;;;;;;5034359;28;20267;-74
2022/06/27 00:11:12;;;;;;;4.00;3.70;;;19.10;99.90;;;;;;5034950;28;20831;-74
2022/06/27 00:13:38;;;;;;;5.03;3.33;;;19.10;99.90;;;;;;5034782;28;20512;-73
2022/06/27 00:16:04;;;;;;;3.80;3.10;;;19.00;99.90;;;;;;5033920;28;20160;-74
2022/06/27 00:18:30;;;;;;;7.70;3.53;;;19.00;99.90;;;;;;5033719;28;20207;-72
2022/06/27 00:20:55;;;;;;;4.00;3.30;;;19.00;99.90;;;;;;5034714;28;20490;-74
2022/06/27 00:23:21;;;;;;;5.67;3.70;;;19.00;99.90;;;;;;5034319;28;20184;-73
2022/06/27 00:25:47;;;;;;;3.80;3.33;;;19.00;99.90;;;;;;5034286;28;20238;-74
2022/06/27 00:28:12;;;;;;;4.30;3.67;;;19.00;99.90;;;;;;5033690;28;20164;-74
2022/06/27 00:30:39;;;;;;;4.33;3.93;;;18.90;99.90;;;;;;5034580;28;20202;-73
2022/06/27 00:33:05;;;;;;;5.17;3.30;;;19.00;99.90;;;;;;5034553;28;20799;-74
2022/06/27 00:35:32;;;;;;;7.33;4.20;;;18.90;99.90;;;;;;5034622;28;20426;-74
2022/06/27 00:37:57;;;;;;;6.13;3.70;;;18.90;99.90;;;;;;5033345;28;20163;-74
2022/06/27 00:40:23;;;;;;;3.80;3.50;;;18.90;1.00;;;;;;5033965;28;20409;-73
2022/06/27 00:42:49;;;;;;;9.20;3.33;;;18.90;1.00;;;;;;5034246;28;20195;-72
2022/06/27 00:45:15;;;;;;;4.57;3.23;;;18.90;1.00;;;;;;5034327;28;20207;-74
2022/06/27 00:47:41;;;;;;;8.30;3.53;;;18.90;1.00;;;;;;5033308;28;20168;-74
2022/06/27 00:50:07;;;;;;;4.17;3.77;;;18.90;1.00;;;;;;5034127;28;20191;-74
2022/06/27 00:52:34;;;;;;;5.73;3.70;;;18.90;1.00;;;;;;5034080;28;20402;-72
2022/06/27 00:55:00;;;;;;;4.33;2.90;;;18.90;1.00;;;;;;5034149;28;20398;-72
2022/06/27 00:57:28;;;;;;;3.60;3.23;;;18.90;1.00;;;;;;5033283;28;20764;-73
2022/06/27 00:59:54;;;;;;;7.60;3.60;;;18.90;1.00;;;;;;5033207;28;20437;-72
2022/06/27 01:02:19;;;;;;;4.07;3.73;;;18.90;1.00;;;;;;5033862;28;20446;-73
2022/06/27 01:04:46;;;;;;;7.67;3.50;;;18.80;1.00;;;;;;5033968;28;20172;-74
2022/06/27 01:07:11;;;;;;;3.83;3.53;;;18.80;1.00;;;;;;5032931;28;20168;-75
2022/06/27 01:09:39;;;;;;;6.90;3.77;;;18.80;1.00;;;;;;5033738;28;20429;-74
2022/06/27 01:12:06;;;;;;;5.23;3.37;;;18.80;1.00;;;;;;5033804;28;20621;-74
2022/06/27 01:14:32;;;;;;;8.13;3.70;;;18.80;1.00;;;;;;5033671;28;20406;-72
2022/06/27 01:16:58;;;;;;;6.93;3.90;;;18.80;1.00;;;;;;5032170;28;20445;-74
2022/06/27 01:19:24;;;;;;;3.20;2.93;;;18.70;1.00;;;;;;5033559;28;20438;-72
2022/06/27 01:21:53;;;;;;;6.47;4.00;;;18.70;1.00;;;;;;5033444;28;20438;-72
2022/06/27 01:24:20;;;;;;;4.40;3.10;;;18.70;1.00;;;;;;5033509;28;20410;-73
2022/06/27 01:26:45;;;;;;;4.53;3.60;;;18.70;1.00;;;;;;5032575;28;20405;-72
2022/06/27 01:29:12;;;;;;;4.80;3.20;;;18.70;1.00;;;;;;5032149;28;20438;-72
2022/06/27 01:31:38;;;;;;;3.63;3.33;;;18.70;1.00;;;;;;5033404;28;20179;-74
2022/06/27 01:34:04;;;;;;;5.13;3.30;;;18.70;1.00;;;;;;5032766;28;20403;-72
2022/06/27 01:36:42;;;;;;;5.00;3.20;;;18.70;1.00;;;;;;5032409;28;20402;-73
2022/06/27 01:39:12;;;;;;;4.00;3.50;;;18.70;1.00;;;;;;5033246;28;20907;-74
2022/06/27 01:41:40;;;;;;;8.40;4.57;;;18.80;1.00;;;;;;5031891;28;20442;-73
2022/06/27 01:44:07;;;;;;;5.63;3.20;;;18.80;1.00;;;;;;5033327;28;20395;-74
2022/06/27 01:46:46;;;;;;;5.27;2.93;;;18.80;1.00;;;;;;5032376;28;20403;-73
2022/06/27 01:49:14;;;;;;;6.93;3.43;;;18.80;1.00;;;;;;5033116;28;20442;-74
2022/06/27 01:51:41;;;;;;;3.90;3.00;;;18.80;1.00;;;;;;5032868;28;20409;-74
2022/06/27 01:54:11;;;;;;;4.53;3.67;;;18.80;1.00;;;;;;5032909;28;20448;-74
2022/06/27 01:56:38;;;;;;;4.30;3.63;;;18.80;1.00;;;;;;5032195;28;20831;-74
2022/06/27 01:59:04;;;;;;;3.33;3.00;;;18.80;1.00;;;;;;5033014;28;20421;-75
2022/06/27 02:01:30;;;;;;;7.90;3.63;;;18.80;1.00;;;;;;5033036;28;20402;-74
2022/06/27 02:03:57;;;;;;;5.27;3.80;;;18.80;1.00;;;;;;5033082;28;20170;-75
2022/06/27 02:06:23;;;;;;;8.00;4.23;;;18.80;1.00;;;;;;5032676;28;20517;-74
2022/06/27 02:08:51;;;;;;;3.47;3.10;;;18.80;1.00;;;;;;5031934;28;20429;-73
2022/06/27 02:11:18;;;;;;;3.47;3.17;;;18.80;1.00;;;;;;5032795;28;20472;-74
2022/06/27 02:13:44;;;;;;;3.73;3.43;;;18.80;1.00;;;;;;5031644;28;20815;-74
2022/06/27 02:16:12;;;;;;;5.53;4.00;;;18.90;1.00;;;;;;5032908;28;20744;-73
2022/06/27 02:18:39;;;;;;;4.57;4.17;;;18.90;1.00;;;;;;5032008;28;20457;-73
2022/06/27 02:21:06;;;;;;;4.03;3.70;;;18.80;1.00;;;;;;5032867;28;20434;-73
2022/06/27 02:23:32;;;;;;;4.70;3.40;;;18.80;1.00;;;;;;5032956;28;20454;-72
2022/06/27 02:25:58;;;;;;;5.30;3.53;;;18.80;1.00;;;;;;5032686;28;20400;-72
2022/06/27 02:28:27;;;;;;;4.37;3.97;;;18.70;1.00;;;;;;5031401;28;20187;-74
2022/06/27 02:30:53;;;;;;;7.13;4.20;;;18.70;1.00;;;;;;5032789;28;20430;-73
2022/06/27 02:33:19;;;;;;;8.03;3.30;;;18.80;1.00;;;;;;5032741;28;20406;-74
2022/06/27 02:35:46;;;;;;;4.80;3.20;;;18.80;1.00;;;;;;5032712;28;20411;-74
2022/06/27 02:38:14;;;;;;;5.13;3.50;;;18.80;1.00;;;;;;5032512;28;20164;-74
2022/06/27 02:40:42;;;;;;;3.00;2.80;;;18.90;1.00;;;;;;5036557;28;20471;-73
2022/06/27 02:43:08;;;;;;;3.43;3.07;;;19.00;1.00;;;;;;5035755;28;20934;-74
2022/06/27 02:45:36;;;;;;;3.63;3.33;;;19.10;1.00;;;;;;5036609;28;20421;-74
2022/06/27 02:48:03;;;;;;;3.30;2.73;;;19.20;1.00;;;;;;5035739;28;20447;-72
2022/06/27 02:50:32;;;;;;;3.40;3.10;;;19.30;1.00;;;;;;5036446;28;20410;-75
2022/06/27 02:53:07;;;;;;;3.03;2.73;;;19.30;1.00;;;;;;5036351;28;20485;-72
2022/06/27 02:55:37;;;;;;;3.93;2.63;;;19.30;1.00;;;;;;5036397;28;20451;-74
2022/06/27 02:58:06;;;;;;;4.20;2.67;;;19.30;1.00;;;;;;5034164;28;20934;-72
2022/06/27 03:00:33;;;;;;;3.60;2.80;;;19.40;1.00;;;;;;5035992;28;20448;-73
2022/06/27 03:02:59;;;;;;;7.83;3.37;;;19.30;1.00;;;;;;5034418;28;20462;-74
2022/06/27 03:05:25;;;;;;;4.50;2.83;;;19.40;1.00;;;;;;5036302;28;20394;-73
2022/06/27 03:07:51;;;;;;;4.07;2.73;;;19.40;1.00;;;;;;5035226;28;20894;-74
2022/06/27 03:10:17;;;;;;;3.40;2.67;;;19.30;1.00;;;;;;5034734;28;20418;-73
2022/06/27 03:12:43;;;;;;;3.90;3.50;;;19.30;1.00;;;;;;5036152;28;20669;-74
2022/06/27 03:15:09;;;;;;;3.27;2.83;;;19.20;1.00;;;;;;5035872;28;20249;-74
2022/06/27 03:17:35;;;;;;;3.00;2.70;;;19.20;1.00;;;;;;5035029;28;20457;-73
2022/06/27 03:20:01;;;;;;;2.40;2.20;;;19.10;1.00;;;;;;5035772;28;20472;-74
2022/06/27 03:22:26;;;;;;;2.73;2.50;;;19.00;1.00;;;;;;5034061;28;20486;-74
2022/06/27 03:24:52;;;;;;;2.57;2.37;;;19.00;1.00;;;;;;5035867;28;20168;-73
2022/06/27 03:27:18;;;;;;;2.37;2.27;;;18.90;1.00;;;;;;5034842;28;20172;-73
2022/06/27 03:29:43;;;;;;;2.03;1.93;;;18.80;1.00;;;;;;5035674;28;20671;-73
2022/06/27 03:32:09;;;;;;;5.07;3.10;;;18.80;1.00;;;;;;5035786;28;20172;-74
2022/06/27 03:34:35;;;;;;;2.53;2.33;;;18.90;1.00;;;;;;5035621;28;20179;-74
2022/06/27 03:37:01;;;;;;;5.27;3.07;;;18.80;1.00;;;;;;5034581;28;20533;-73
2022/06/27 03:39:27;;;;;;;2.63;2.43;;;18.80;1.00;;;;;;5034873;28;20187;-72
2022/06/27 03:41:52;;;;;;;3.90;2.20;;;18.70;1.00;;;;;;5035416;28;20449;-73
2022/06/27 03:44:18;;;;;;;2.80;2.60;;;18.70;1.00;;;;;;5035477;28;20242;-73
2022/06/27 03:46:44;;;;;;;2.70;2.50;;;18.70;1.00;;;;;;5034699;28;20221;-74
2022/06/27 03:51:54;;;;;;;4.70;2.87;;;18.50;1.00;;;;;;5035386;28;20159;-74
2022/06/27 03:54:20;;;;;;;4.77;3.00;;;18.50;1.00;;;;;;5035344;28;20402;-73
2022/06/27 03:56:46;;;;;;;2.50;2.30;;;18.40;1.00;;;;;;5034517;28;20470;-73
2022/06/27 03:59:12;;;;;;;2.67;2.40;;;18.40;1.00;;;;;;5034461;28;20986;-73
2022/06/27 04:01:38;;;;;;;2.60;2.40;;;18.30;1.00;;;;;;5035043;28;20164;-73
2022/06/27 04:04:05;;;;;;;3.10;2.40;;;18.20;1.00;;;;;;5035177;28;20390;-72
2022/06/27 04:06:32;;;;;;;2.10;2.00;;;18.10;1.00;;;;;;5034136;28;20409;-74
2022/06/27 04:08:58;;;;;;;3.67;2.33;;;18.00;1.00;;;;;;5034912;28;20794;-74
2022/06/27 04:11:24;;;;;;;2.10;1.87;;;17.90;1.00;;;;;;5034911;28;20406;-72
2022/06/27 04:13:49;;;;;;;2.83;2.50;;;17.90;1.00;;;;;;5034935;28;20449;-74
2022/06/27 04:16:15;;;;;;;4.70;2.27;;;17.90;1.00;;;;;;5034764;28;20176;-73
2022/06/27 04:18:41;;;;;;;2.50;2.30;;;18.00;1.00;;;;;;5033501;28;20661;-73
2022/06/27 04:21:06;;;;;;;1.70;1.60;;;18.00;1.00;;;;;;5034649;28;20586;-72
2022/06/27 04:23:32;;;;;;;2.00;1.90;;;18.00;1.00;;;;;;5034572;28;20195;-72
2022/06/27 04:25:58;;;;;;;2.43;2.23;;;18.00;1.00;;;;;;5034720;28;20168;-72
2022/06/27 04:28:24;;;;;;;2.00;1.80;;;18.00;1.00;;;;;;5033674;28;20233;-73
2022/06/27 04:30:52;;;;;;;2.27;2.17;;;18.10;1.00;;;;;;5034632;28;20178;-72
2022/06/27 04:33:18;;;;;;;2.70;2.50;;;18.10;1.00;;;;;;5034456;28;20501;-72
2022/06/27 04:35:46;;;;;;;2.53;2.33;;;18.20;1.00;;;;;;5034334;28;20413;-72
2022/06/27 04:38:13;;;;;;;3.23;2.50;;;18.30;1.00;;;;;;5033021;28;20625;-74
2022/06/27 04:40:39;;;;;;;3.27;2.43;;;18.30;1.00;;;;;;5034356;28;20410;-74
2022/06/27 04:43:05;;;;;;;2.37;2.20;;;18.30;1.00;;;;;;5034277;28;20453;-72
2022/06/27 04:45:33;;;;;;;5.97;2.70;;;18.30;1.00;;;;;;5034355;28;20402;-73
2022/06/27 04:48:00;;;;;;;4.33;3.17;;;18.20;1.00;;;;;;5033230;28;20398;-73
2022/06/27 04:50:26;;;;;;;3.20;2.73;;;18.10;1.00;;;;;;5034102;28;20402;-73
2022/06/27 04:52:52;;;;;;;4.50;3.27;;;18.20;1.00;;;;;;5034239;28;20409;-75
2022/06/27 04:55:20;;;;;;;4.93;2.90;;;18.20;1.00;;;;;;5032297;28;20509;-75
2022/06/27 04:57:46;;;;;;;5.80;3.80;;;18.20;1.00;;;;;;5032809;28;20409;-77
2022/06/27 05:00:14;;;;;;;4.83;4.30;;;18.10;1.00;;;;;;5032711;28;20442;-77
2022/06/27 05:02:40;;;;;;;3.33;3.13;;;17.90;1.00;;;;;;5033430;28;20462;-73
2022/06/27 05:05:07;;;;;;;4.63;4.20;;;17.90;1.00;;;;;;5033903;28;20398;-73
2022/06/27 05:07:32;;;;;;;5.70;4.73;;;17.90;1.00;;;;;;5033067;28;20398;-73
2022/06/27 05:09:58;;;;;;;5.70;4.53;;;17.90;1.00;;;;;;5033678;28;20426;-73
2022/06/27 05:12:25;;;;;;;5.80;5.20;;;17.80;1.00;;;;;;5033780;28;20176;-73
2022/06/27 05:14:52;;;;;;;6.87;5.17;;;17.60;1.00;;;;;;5031962;28;20178;-73
2022/06/27 05:17:18;;;;;;;7.43;5.27;;;17.60;1.00;;;;;;5031520;28;20406;-73
2022/06/27 05:19:44;;;;;;;6.97;5.60;;;17.60;1.00;;;;;;5033511;28;20882;-73
2022/06/27 05:22:10;;;;;;;5.90;5.27;;;17.60;1.00;;;;;;5033579;28;20200;-73
2022/06/27 05:24:37;;;;;;;7.93;7.13;;;17.60;1.00;;;;;;5033577;28;20164;-74
2022/06/27 05:27:03;;;;;;;7.60;6.90;;;17.50;1.00;;;;;;5032653;28;20395;-74
2022/06/27 05:29:29;;;;;;;9.20;7.07;;;17.50;39.90;;;;;;5033581;28;20460;-74
2022/06/27 05:31:54;;;;;;;8.27;7.47;;;17.50;97.50;;;;;;5033231;28;20399;-74
2022/06/27 05:34:21;;;;;;;15.00;8.23;;;17.50;99.90;;;;;;5033433;28;20183;-75
2022/06/27 05:36:47;;;;;;;8.23;7.53;;;17.60;99.90;;;;;;5031339;28;21010;-74
2022/06/27 05:39:13;;;;;;;9.93;8.80;;;17.50;99.90;;;;;;5033320;28;20422;-75
2022/06/27 05:41:39;;;;;;;10.73;8.60;;;17.50;99.90;;;;;;5033220;28;20429;-74
2022/06/27 05:44:05;;;;;;;9.60;8.07;;;17.50;99.90;;;;;;5033283;28;20170;-74
2022/06/27 05:46:32;;;;;;;9.40;7.30;;;17.60;99.90;;;;;;5032308;28;20398;-74
2022/06/27 05:48:58;;;;;;;10.03;7.40;;;17.80;99.90;;;;;;5033160;28;20421;-74
2022/06/27 05:51:24;;;;;;;9.70;8.47;;;17.90;99.90;;;;;;5033421;28;20402;-75
2022/06/27 05:53:51;;;;;;;9.90;8.90;;;18.00;99.90;;;;;;5032554;28;20698;-74
2022/06/27 05:56:17;;;;;;;9.30;8.40;;;18.10;99.90;;;;;;5032819;28;20406;-75
2022/06/27 05:58:43;;;;;;;11.63;8.27;;;18.10;99.90;;;;;;5032473;28;21005;-74
2022/06/27 06:01:10;;;;;;;9.03;8.13;;;18.10;99.90;;;;;;5033105;28;20167;-74
2022/06/27 06:03:37;;;;;;;8.70;7.80;;;18.30;99.90;;;;;;5032924;28;20942;-74
2022/06/27 06:06:04;;;;;;;9.43;7.90;;;18.40;99.90;;;;;;5033095;28;20394;-74
2022/06/27 06:08:31;;;;;;;9.00;8.10;;;18.60;1.00;;;;;;5031592;28;20934;-74
2022/06/27 06:10:57;;;;;;;8.13;7.30;;;18.60;1.00;;;;;;5032791;28;20814;-74
2022/06/27 06:13:24;;;;;;;9.57;6.60;;;18.60;1.00;;;;;;5034130;28;20494;-75
2022/06/27 06:15:51;;;;;;;8.90;7.10;;;18.60;1.00;;;;;;5037044;28;20903;-75
2022/06/27 06:18:17;;;;;;;8.53;5.33;;;18.60;1.00;;;;;;5035960;28;20930;-75
2022/06/27 06:20:43;;;;;;;9.73;5.70;;;18.70;1.00;;;;;;5037080;28;20418;-75
2022/06/27 06:23:09;;;;;;;8.10;5.20;;;18.80;1.00;;;;;;5036884;28;20453;-75
2022/06/27 06:25:34;;;;;;;19.43;6.13;;;18.90;1.00;;;;;;5036282;28;20187;-75
2022/06/27 06:28:02;;;;;;;10.90;5.67;;;18.90;1.00;;;;;;5036006;28;20167;-75
2022/06/27 06:30:29;;;;;;;7.40;5.50;;;18.90;1.00;;;;;;5036725;28;20213;-75
2022/06/27 06:32:56;;;;;;;9.37;6.57;;;18.90;1.00;;;;;;5036837;28;20398;-75
2022/06/27 06:35:23;;;;;;;6.90;6.00;;;19.00;1.00;;;;;;5036961;28;20429;-75
2022/06/27 06:37:50;;;;;;;12.80;7.43;;;19.00;1.00;;;;;;5035820;28;20403;-75
2022/06/27 06:40:16;;;;;;;12.10;6.77;;;19.00;1.00;;;;;;5036458;28;20429;-75
2022/06/27 06:42:42;;;;;;;9.73;5.50;;;19.00;1.00;;;;;;5035977;28;20817;-75
2022/06/27 06:45:09;;;;;;;15.00;6.63;;;19.10;1.00;;;;;;5036570;28;20398;-75
2022/06/27 06:47:42;;;;;;;9.70;6.70;;;19.20;1.00;;;;;;5035732;28;20406;-75
2022/06/27 06:50:10;;;;;;;13.93;5.83;;;19.10;1.00;;;;;;5036510;28;20418;-75
2022/06/27 06:52:39;;;;;;;11.27;5.73;;;19.00;1.00;;;;;;5036373;28;20398;-75
2022/06/27 06:55:06;;;;;;;10.90;6.93;;;18.90;1.00;;;;;;5036340;28;20476;-75
2022/06/27 06:57:31;;;;;;;7.60;5.93;;;18.90;1.00;;;;;;5035204;28;20438;-75
2022/06/27 06:59:57;;;;;;;6.23;5.20;;;19.00;1.00;;;;;;5035882;28;20461;-75
2022/06/27 07:02:24;;;;;;;13.50;7.00;;;18.90;1.00;;;;;;5036256;28;20191;-75
2022/06/27 07:04:50;;;;;;;9.03;7.90;;;18.90;1.00;;;;;;5034987;28;20579;-76
2022/06/27 07:07:17;;;;;;;12.57;8.60;;;18.90;1.00;;;;;;5035266;28;20430;-75
2022/06/27 07:09:43;;;;;;;13.83;7.87;;;19.00;1.00;;;;;;5035996;28;20426;-75
2022/06/27 07:12:10;;;;;;;11.03;8.03;;;19.00;1.00;;;;;;5036249;28;20412;-75
2022/06/27 07:14:35;;;;;;;7.50;6.53;;;19.00;1.00;;;;;;5035679;28;20221;-75
2022/06/27 07:17:01;;;;;;;10.50;5.80;;;18.80;1.00;;;;;;5034562;28;20398;-75
2022/06/27 07:19:29;;;;;;;9.00;7.37;;;18.90;1.00;;;;;;5035958;28;20195;-75
2022/06/27 07:21:54;;;;;;;14.30;7.63;;;18.80;1.00;;;;;;5035873;28;20183;-75
2022/06/27 07:24:20;;;;;;;9.33;6.70;;;18.70;1.00;;;;;;5035443;28;20447;-76
2022/06/27 07:26:46;;;;;;;8.43;6.67;;;18.80;1.00;;;;;;5034965;28;20168;-75
2022/06/27 07:29:12;;;;;;;10.13;7.10;;;18.80;1.00;;;;;;5035660;28;20184;-75
2022/06/27 07:31:37;;;;;;;17.97;7.30;;;18.80;1.00;;;;;;5035598;28;20167;-75
2022/06/27 07:34:08;;;;;;;10.87;6.20;;;18.80;1.00;;;;;;5035384;28;20561;-75
2022/06/27 07:36:35;;;;;;;14.63;6.83;;;18.80;1.00;;;;;;5034780;28;20528;-75
2022/06/27 07:39:01;;;;;;;11.00;7.30;;;18.70;1.00;;;;;;5035367;28;20509;-75
2022/06/27 07:41:30;;;;;;;17.20;7.40;;;18.70;1.00;;;;;;5035611;28;20764;-74
2022/06/27 07:43:56;;;;;;;18.00;7.67;;;18.80;1.00;;;;;;5035530;28;20445;-74
2022/06/27 07:46:21;;;;;;;11.23;7.13;;;18.80;1.00;;;;;;5035237;28;20399;-76
2022/06/27 07:48:49;;;;;;;14.97;7.10;;;18.80;1.00;;;;;;5034702;28;20238;-75
2022/06/27 07:51:19;;;;;;;16.97;7.30;;;18.90;1.00;;;;;;5034858;28;20644;-75
2022/06/27 07:53:48;;;;;;;16.20;7.37;;;18.90;1.00;;;;;;5033874;28;20468;-75
2022/06/27 07:56:16;;;;;;;13.67;7.50;;;18.90;1.00;;;;;;5035159;28;20403;-75
2022/06/27 07:58:42;;;;;;;12.83;8.57;;;18.90;1.00;;;;;;5034513;28;20525;-75
2022/06/27 08:01:14;;;;;;;18.80;9.53;;;18.90;1.00;;;;;;5035114;28;20407;-76
2022/06/27 08:03:41;;;;;;;13.93;8.57;;;18.90;1.00;;;;;;5034982;28;20939;-75
2022/06/27 08:06:21;;;;;;;12.20;7.70;;;18.90;1.00;;;;;;5035226;28;20403;-76
2022/06/27 08:08:52;;;;;;;16.50;8.90;;;19.00;1.00;;;;;;5033851;28;20421;-75
2022/06/27 08:11:23;;;;;;;13.50;8.03;;;19.00;1.00;;;;;;5034945;28;20899;-75
2022/06/27 08:13:51;;;;;;;11.87;7.27;;;19.10;1.00;;;;;;5034946;28;20485;-75
2022/06/27 08:16:18;;;;;;;13.50;6.77;;;19.30;1.00;;;;;;5034566;28;20403;-75
2022/06/27 08:18:46;;;;;;;14.13;7.03;;;19.30;1.00;;;;;;5032849;28;20461;-75
2022/06/27 08:21:14;;;;;;;9.80;6.30;;;19.40;1.00;;;;;;5034735;28;20490;-75
2022/06/27 08:23:40;;;;;;;11.37;6.87;;;19.40;1.00;;;;;;5034672;28;20465;-75
2022/06/27 08:26:08;;;;;;;9.90;6.87;;;19.30;1.00;;;;;;5034908;28;20406;-75
2022/06/27 08:28:36;;;;;;;11.47;7.43;;;19.30;1.00;;;;;;5033183;28;20471;-75
2022/06/27 08:31:10;;;;;;;15.13;7.17;;;19.30;1.00;;;;;;5034665;28;20386;-74
2022/06/27 08:33:36;;;;;;;16.93;8.50;;;19.40;1.00;;;;;;5034397;28;20406;-75
2022/06/27 08:36:03;;;;;;;14.63;8.13;;;19.40;1.00;;;;;;5033753;28;20399;-75
2022/06/27 08:38:31;;;;;;;14.50;8.13;;;19.40;1.00;;;;;;5033523;28;20430;-75
2022/06/27 08:40:57;;;;;;;11.23;7.40;;;19.40;99.90;;;;;;5034440;28;20414;-75
2022/06/27 08:43:23;;;;;;;18.27;7.17;;;19.30;99.90;;;;;;5034237;28;20442;-75
2022/06/27 08:45:52;;;;;;;12.37;7.93;;;19.40;99.90;;;;;;5033693;28;20160;-75
2022/06/27 08:48:19;;;;;;;8.27;6.90;;;19.40;99.90;;;;;;5033337;28;20417;-74
2022/06/27 08:50:48;;;;;;;12.63;8.07;;;19.40;99.90;;;;;;5034397;28;20457;-74
2022/06/27 08:53:14;;;;;;;9.07;7.33;;;19.30;99.90;;;;;;5034163;28;20509;-75
2022/06/27 08:55:47;;;;;;;11.77;7.47;;;19.20;99.90;;;;;;5033860;28;20399;-77
2022/06/27 08:58:13;;;;;;;9.77;6.90;;;19.10;99.90;;;;;;5031750;28;20410;-74
2022/06/27 09:00:45;;;;;;;14.83;7.60;;;19.20;99.90;;;;;;5034156;28;20402;-75
2022/06/27 09:03:12;;;;;;;9.80;8.90;;;19.20;99.90;;;;;;5034002;28;20982;-76
2022/06/27 09:05:37;;;;;;;16.17;7.33;;;19.20;99.90;;;;;;5033369;28;20433;-75
2022/06/27 09:08:06;;;;;;;10.87;6.90;;;19.10;99.90;;;;;;5032934;28;20434;-75
2022/06/27 09:10:33;;;;;;;13.00;7.20;;;19.10;99.90;;;;;;5033925;28;20170;-75
2022/06/27 09:13:15;;;;;;;9.17;6.77;;;19.00;99.90;;;;;;5033861;28;20822;-77
2022/06/27 09:16:00;;;;;;;14.30;8.93;;;19.10;99.90;;;;;;5033737;28;20413;-76
2022/06/27 09:18:27;;;;;;;10.80;6.27;;;19.20;99.90;;;;;;5032670;28;20454;-77
2022/06/27 09:21:11;;;;;;;17.33;7.63;;;19.20;99.90;;;;;;5033108;28;20477;-75
2022/06/27 09:23:50;;;;;;;10.83;7.33;;;19.20;99.90;;;;;;5033412;28;21052;-75
2022/06/27 09:26:38;;;;;;;10.30;8.13;;;19.00;99.90;;;;;;5033394;28;20410;-75
2022/06/27 09:29:07;;;;;;;15.10;7.70;;;18.80;99.90;;;;;;5033456;28;20422;-77
2022/06/27 09:31:35;;;;;;;11.93;6.57;;;18.70;99.90;;;;;;5033559;28;20478;-75
2022/06/27 09:34:24;;;;;;;14.13;7.20;;;18.70;99.90;;;;;;5033426;28;20481;-75
2022/06/27 09:36:59;;;;;;;12.23;8.10;;;18.90;99.90;;;;;;5032285;28;20883;-77
2022/06/27 09:39:31;;;;;;;14.17;8.10;;;18.80;99.90;;;;;;5033053;28;20849;-75
2022/06/27 09:42:01;;;;;;;15.17;8.60;;;18.90;99.90;;;;;;5033213;28;20441;-74
2022/06/27 09:44:38;;;;;;;8.90;7.47;;;18.90;99.90;;;;;;5033322;28;20966;-74
2022/06/27 09:47:15;;;;;;;8.60;7.60;;;19.00;99.90;;;;;;5032203;28;20409;-75
2022/06/27 09:49:43;;;;;;;16.37;9.10;;;19.00;99.90;;;;;;5033132;28;20500;-77
2022/06/27 09:52:14;;;;;;;11.20;8.33;;;19.00;99.90;;;;;;5033048;28;20910;-77
2022/06/27 09:54:42;;;;;;;12.73;7.50;;;19.10;99.90;;;;;;5032638;28;20875;-77
2022/06/27 09:57:09;;;;;;;11.30;8.40;;;19.10;99.90;;;;;;5032317;28;20406;-77
2022/06/27 09:59:37;;;;;;;16.40;8.10;;;19.10;99.90;;;;;;5033075;28;20426;-75
2022/06/27 10:02:04;;;;;;;10.30;8.67;;;19.10;99.90;;;;;;5033018;28;20457;-74
2022/06/27 10:04:31;;;;;;;12.77;6.90;;;19.10;99.90;;;;;;5033103;28;20402;-74
2022/06/27 10:07:00;;;;;;;13.90;8.30;;;19.20;99.90;;;;;;5032385;28;20391;-74
2022/06/27 10:09:29;;;;;;;9.00;7.77;;;19.30;99.90;;;;;;5033275;28;20426;-76
2022/06/27 10:12:22;;;;;;;11.07;9.00;;;19.20;99.90;;;;;;5032608;28;20471;-74
2022/06/27 10:15:10;;;;;;;11.80;7.77;;;19.20;99.90;;;;;;5032945;28;20394;-75
2022/06/27 10:17:36;;;;;;;10.47;7.97;;;19.30;99.90;;;;;;5031788;28;20433;-77
2022/06/27 10:20:21;;;;;;;11.50;7.83;;;19.30;99.90;;;;;;5032864;28;20547;-76
2022/06/27 10:23:08;;;;;;;16.17;7.93;;;19.30;99.90;;;;;;5032796;28;20803;-76
2022/06/27 10:25:39;;;;;;;14.13;9.13;;;19.30;99.90;;;;;;5032828;28;20492;-76
2022/06/27 10:28:11;;;;;;;10.57;8.17;;;19.30;99.90;;;;;;5031660;28;21160;-76
2022/06/27 10:30:38;;;;;;;16.80;8.17;;;19.20;99.90;;;;;;5032340;28;20449;-75
2022/06/27 10:33:19;;;;;;;12.17;7.30;;;19.30;99.90;;;;;;5032800;28;20409;-77
2022/06/27 10:36:11;;;;;;;17.37;7.83;;;19.50;99.90;;;;;;5032722;28;20451;-77
2022/06/27 10:38:39;;;;;;;17.67;7.97;;;19.60;99.90;;;;;;5031956;28;20430;-75
2022/06/27 10:41:25;;;;;;;11.77;7.83;;;19.70;99.90;;;;;;5032711;28;20409;-75
2022/06/27 10:43:54;;;;;;;13.37;9.17;;;19.80;99.90;;;;;;5032178;28;20469;-77
2022/06/27 10:46:19;;;;;;;11.73;9.00;;;19.90;99.90;;;;;;5031050;28;20430;-76
2022/06/27 10:48:46;;;;;;;12.80;9.77;;;19.90;99.90;;;;;;5031301;28;20426;-76
2022/06/27 10:51:21;;;;;;;16.00;10.63;;;19.90;99.90;;;;;;5032686;28;20172;-75
2022/06/27 10:53:51;;;;;;;10.20;8.27;;;19.90;99.90;;;;;;5032629;28;20759;-77
2022/06/27 10:56:31;;;;;;;10.73;8.87;;;19.90;99.90;;;;;;5032426;28;20413;-76
2022/06/27 10:59:02;;;;;;;11.87;8.47;;;19.90;99.90;;;;;;5032626;28;20465;-75
2022/06/27 11:01:29;;;;;;;10.83;8.73;;;19.90;99.90;;;;;;5036311;28;20406;-77
2022/06/27 11:03:55;;;;;;;13.30;8.50;;;19.70;99.90;;;;;;5036386;28;20460;-75
2022/06/27 11:06:21;;;;;;;10.60;8.37;;;19.60;99.90;;;;;;5036007;28;20403;-76
2022/06/27 11:08:49;;;;;;;10.23;9.10;;;19.70;99.90;;;;;;5034824;28;20418;-75
2022/06/27 11:11:16;;;;;;;14.20;9.90;;;19.70;99.90;;;;;;5036212;28;20742;-76
2022/06/27 11:13:53;;;;;;;12.97;9.40;;;19.70;99.90;;;;;;5036163;28;20398;-75
2022/06/27 11:16:30;;;;;;;16.53;9.57;;;19.70;99.90;;;;;;5035798;28;20493;-76
2022/06/27 11:18:58;;;;;;;13.37;9.43;;;19.90;99.90;;;;;;5034297;28;20974;-76
2022/06/27 11:21:32;;;;;;;14.00;10.13;;;19.90;99.90;;;;;;5035995;28;20406;-75
2022/06/27 11:24:04;;;;;;;12.33;10.40;;;19.80;99.90;;;;;;5035639;28;20468;-75
2022/06/27 11:26:32;;;;;;;13.90;11.00;;;19.90;99.90;;;;;;5034707;28;20412;-76
2022/06/27 11:32:03;;;;;;;11.43;9.67;;;20.10;99.90;;;;;;5036014;28;20402;-76
2022/06/27 11:34:32;;;;;;;13.53;10.00;;;20.20;99.90;;;;;;5035755;28;20499;-76
2022/06/27 11:37:00;;;;;;;10.17;9.00;;;20.20;99.90;;;;;;5034664;28;20414;-76
2022/06/27 11:39:30;;;;;;;12.73;9.43;;;20.30;99.90;;;;;;5035562;28;20438;-75
2022/06/27 11:41:59;;;;;;;13.10;7.80;;;20.40;99.90;;;;;;5035696;28;20413;-75
2022/06/27 11:44:26;;;;;;;9.60;7.97;;;20.40;99.90;;;;;;5034941;28;20410;-75
2022/06/27 11:47:00;;;;;;;24.37;9.70;;;20.40;99.90;;;;;;5034587;28;20868;-75
2022/06/27 11:49:36;;;;;;;13.30;9.27;;;20.40;99.90;;;;;;5035289;28;20439;-75
2022/06/27 11:52:13;;;;;;;13.97;8.53;;;20.40;99.90;;;;;;5035457;28;20461;-75
2022/06/27 11:54:52;;;;;;;12.87;8.70;;;20.40;99.90;;;;;;5035425;28;20437;-76
2022/06/27 11:57:22;;;;;;;10.60;8.03;;;20.20;99.90;;;;;;5034372;28;20394;-75
2022/06/27 11:59:51;;;;;;;9.87;8.63;;;20.30;99.90;;;;;;5033638;28;20492;-76
2022/06/27 12:02:28;;;;;;;14.07;8.50;;;20.40;99.90;;;;;;5034772;28;20942;-75
2022/06/27 12:05:04;;;;;;;9.40;8.40;;;20.40;99.90;;;;;;5035115;28;20399;-76
2022/06/27 12:07:30;;;;;;;11.20;8.53;;;20.50;99.90;;;;;;5034080;28;20412;-76
2022/06/27 12:09:56;;;;;;;11.30;10.10;;;20.50;99.90;;;;;;5034975;28;20427;-76
2022/06/27 12:12:26;;;;;;;13.23;10.30;;;20.40;99.90;;;;;;5033945;28;20908;-75
2022/06/27 12:14:53;;;;;;;16.17;10.70;;;20.50;99.90;;;;;;5035053;28;20747;-76
2022/06/27 12:17:20;;;;;;;16.90;10.20;;;20.50;99.90;;;;;;5033332;28;20459;-76
2022/06/27 12:19:46;;;;;;;11.70;8.10;;;20.50;99.90;;;;;;5034853;28;20472;-75
2022/06/27 12:22:18;;;;;;;16.77;8.13;;;20.40;99.90;;;;;;5034688;28;20450;-76
2022/06/27 12:24:45;;;;;;;16.40;8.37;;;20.40;99.90;;;;;;5034835;28;20430;-76
2022/06/27 12:27:10;;;;;;;11.57;9.27;;;20.30;99.90;;;;;;5032522;28;20422;-76
2022/06/27 12:29:36;;;;;;;16.70;9.10;;;20.20;99.90;;;;;;5034567;28;20445;-76
2022/06/27 12:32:02;;;;;;;18.33;9.03;;;20.10;99.90;;;;;;5034776;28;20531;-76
2022/06/27 12:34:28;;;;;;;12.37;9.90;;;20.10;99.90;;;;;;5034328;28;20176;-76
2022/06/27 12:36:54;;;;;;;12.87;9.17;;;20.10;99.90;;;;;;5033277;28;20263;-75
2022/06/27 12:39:20;;;;;;;14.83;11.30;;;20.10;99.90;;;;;;5034446;28;20426;-75
2022/06/27 12:41:46;;;;;;;14.00;9.60;;;20.10;99.90;;;;;;5034251;28;20425;-78
2022/06/27 12:44:12;;;;;;;13.80;9.03;;;20.20;99.90;;;;;;5034372;28;20163;-76
2022/06/27 12:46:38;;;;;;;14.97;10.23;;;20.30;99.90;;;;;;5033692;28;20210;-78
2022/06/27 12:49:03;;;;;;;16.60;8.87;;;20.40;99.90;;;;;;5034981;28;20604;-78
2022/06/27 12:51:29;;;;;;;17.07;9.70;;;20.50;99.90;;;;;;5033782;28;20398;-76
2022/06/27 12:53:55;;;;;;;13.77;9.53;;;20.70;99.90;;;;;;5033984;28;20199;-77
2022/06/27 12:56:23;;;;;;;12.10;10.00;;;20.80;99.90;;;;;;5033938;28;20477;-77
2022/06/27 12:58:49;;;;;;;15.73;10.90;;;20.80;99.90;;;;;;5033420;28;20434;-76